Time;durP1;ratioP1;P1;durP2;ratioP2;P2;SDS_P1;SDS_P2;PMS_P1;PMS_P2;Temp;Humidity;BMP_temperature;BMP_pressure;BME280_temperature;BME280_humidity;BME280_pressure;Samples;Min_cycle;Max_cycle;Signal;HPM_P1;HPM_P2
2023/11/16 00:00:32;;;;;;;1.50;0.30;;;9.00;91.90;;;;;;5094475;28;20888;-48
2023/11/16 00:03:01;;;;;;;1.20;0.30;;;9.00;90.00;;;;;;5094084;28;20513;-50
2023/11/16 00:05:31;;;;;;;2.00;0.40;;;8.90;63.00;;;;;;5095588;28;20725;-49
2023/11/16 00:07:58;;;;;;;0.90;0.30;;;8.90;61.30;;;;;;5095627;28;20967;-50
2023/11/16 00:10:25;;;;;;;1.00;0.30;;;8.90;54.40;;;;;;5094109;28;20541;-51
2023/11/16 00:12:54;;;;;;;1.20;0.30;;;8.90;57.90;;;;;;5094753;28;20730;-49
2023/11/16 00:15:21;;;;;;;1.95;0.40;;;8.90;61.50;;;;;;5095066;28;20479;-49
2023/11/16 00:17:48;;;;;;;0.52;0.30;;;8.80;58.60;;;;;;5094645;28;20450;-47
2023/11/16 00:20:16;;;;;;;1.08;0.40;;;8.80;64.80;;;;;;5095379;28;20834;-49
2023/11/16 00:22:44;;;;;;;1.00;0.30;;;8.80;59.50;;;;;;5095331;28;20425;-48
2023/11/16 00:25:12;;;;;;;2.90;0.30;;;8.80;55.40;;;;;;5095633;28;20704;-51
2023/11/16 00:27:40;;;;;;;1.80;0.32;;;8.80;51.40;;;;;;5095375;28;20706;-49
2023/11/16 00:30:08;;;;;;;0.90;0.20;;;8.80;53.80;;;;;;5094315;28;20420;-52
2023/11/16 00:32:35;;;;;;;0.80;0.30;;;8.70;53.00;;;;;;5094362;28;20499;-53
2023/11/16 00:35:02;;;;;;;0.70;0.30;;;8.70;59.80;;;;;;5094642;28;20428;-54
2023/11/16 00:37:29;;;;;;;1.10;0.30;;;8.70;54.30;;;;;;5095405;28;20417;-54
2023/11/16 00:39:58;;;;;;;1.60;0.30;;;8.70;64.30;;;;;;5094736;28;20414;-52
2023/11/16 00:42:28;;;;;;;1.80;0.33;;;8.80;72.40;;;;;;5093548;28;20717;-52
2023/11/16 00:44:56;;;;;;;0.77;0.30;;;8.80;68.90;;;;;;5095350;28;20536;-52
2023/11/16 00:47:24;;;;;;;1.10;0.22;;;8.80;54.50;;;;;;5094816;28;20520;-53
2023/11/16 00:49:51;;;;;;;0.60;0.30;;;8.90;49.60;;;;;;5094899;28;20429;-49
2023/11/16 00:52:20;;;;;;;0.70;0.30;;;8.90;62.40;;;;;;5094474;28;20876;-55
2023/11/16 00:54:48;;;;;;;1.50;0.30;;;8.90;75.30;;;;;;5094647;28;20843;-50
2023/11/16 00:57:17;;;;;;;0.60;0.30;;;8.90;73.80;;;;;;5093759;28;20414;-50
2023/11/16 00:59:46;;;;;;;0.80;0.30;;;8.90;61.70;;;;;;5093729;28;20564;-53
2023/11/16 01:02:14;;;;;;;1.35;0.30;;;9.00;43.40;;;;;;5093797;28;20860;-49
2023/11/16 01:04:41;;;;;;;0.50;0.30;;;8.90;39.30;;;;;;5093882;28;20432;-51
2023/11/16 01:07:10;;;;;;;1.20;0.30;;;8.90;64.50;;;;;;5093214;28;20703;-50
2023/11/16 01:09:38;;;;;;;0.50;0.30;;;8.80;71.70;;;;;;5093960;28;20728;-53
2023/11/16 01:12:11;;;;;;;1.10;0.20;;;8.80;69.00;;;;;;5093818;28;20418;-52
2023/11/16 01:14:40;;;;;;;1.70;0.30;;;8.80;59.00;;;;;;5094454;28;20425;-48
2023/11/16 01:17:12;;;;;;;0.60;0.30;;;8.80;60.90;;;;;;5094834;28;20422;-53
2023/11/16 01:19:45;;;;;;;1.20;0.30;;;8.80;56.50;;;;;;5094456;28;20467;-50
2023/11/16 01:22:15;;;;;;;0.50;0.20;;;8.80;65.80;;;;;;5095159;28;20421;-52
2023/11/16 01:24:44;;;;;;;0.60;0.30;;;8.90;70.10;;;;;;5097833;28;20504;-49
2023/11/16 01:27:18;;;;;;;1.10;0.30;;;8.90;57.90;;;;;;5097500;28;20434;-51
2023/11/16 01:29:47;;;;;;;1.80;0.30;;;9.00;62.50;;;;;;5097550;28;20482;-50
2023/11/16 01:32:14;;;;;;;0.50;0.30;;;9.00;45.10;;;;;;5097570;28;20429;-51
2023/11/16 01:34:42;;;;;;;1.70;0.25;;;9.00;30.80;;;;;;5097914;28;20713;-53
2023/11/16 01:37:12;;;;;;;1.20;0.30;;;8.90;35.90;;;;;;5096825;28;20429;-51
2023/11/16 01:39:39;;;;;;;0.60;0.30;;;8.90;54.10;;;;;;5094354;28;20413;-53
2023/11/16 01:42:09;;;;;;;2.03;0.30;;;8.90;33.50;;;;;;5093375;28;20440;-50
2023/11/16 01:44:36;;;;;;;0.73;0.20;;;8.90;31.90;;;;;;5094042;28;20508;-52
2023/11/16 01:47:08;;;;;;;0.77;0.30;;;9.00;35.10;;;;;;5094441;28;20434;-50
2023/11/16 01:49:36;;;;;;;1.30;0.30;;;9.00;26.10;;;;;;5094068;28;20572;-53
2023/11/16 01:52:03;;;;;;;0.40;0.20;;;9.00;24.30;;;;;;5095743;28;20424;-49
2023/11/16 01:54:31;;;;;;;0.60;0.22;;;9.00;39.50;;;;;;5097236;28;20720;-50
2023/11/16 01:56:59;;;;;;;0.55;0.20;;;9.00;59.10;;;;;;5098414;28;20429;-49
2023/11/16 01:59:27;;;;;;;0.80;0.30;;;9.00;63.10;;;;;;5098157;28;20490;-52
2023/11/16 02:01:56;;;;;;;1.23;0.30;;;9.00;83.50;;;;;;5097447;28;20461;-51
2023/11/16 02:04:25;;;;;;;0.70;0.30;;;9.00;90.30;;;;;;5097526;28;20422;-51
2023/11/16 02:06:54;;;;;;;0.50;0.30;;;9.00;97.40;;;;;;5097725;28;20489;-52
2023/11/16 02:09:21;;;;;;;0.80;0.20;;;9.00;99.90;;;;;;5097752;28;20444;-51
2023/11/16 02:11:48;;;;;;;1.00;0.30;;;9.00;99.90;;;;;;5097614;28;20667;-51
2023/11/16 02:14:15;;;;;;;0.47;0.20;;;8.90;99.90;;;;;;5097084;28;20422;-53
2023/11/16 02:16:42;;;;;;;2.00;0.37;;;8.80;99.90;;;;;;5096845;28;20421;-52
2023/11/16 02:19:21;;;;;;;0.50;0.30;;;8.70;99.90;;;;;;5097029;28;20418;-53
2023/11/16 02:21:51;;;;;;;1.00;0.30;;;8.70;99.90;;;;;;5097398;28;20495;-52
2023/11/16 02:24:19;;;;;;;0.60;0.30;;;8.60;99.90;;;;;;5097850;28;20418;-49
2023/11/16 02:26:47;;;;;;;0.90;0.30;;;8.60;99.90;;;;;;5097296;28;20429;-50
2023/11/16 02:29:14;;;;;;;0.60;0.30;;;8.60;99.90;;;;;;5097259;28;20737;-52
2023/11/16 02:31:41;;;;;;;0.70;0.30;;;8.60;99.90;;;;;;5097118;28;20433;-53
2023/11/16 02:34:08;;;;;;;1.50;0.30;;;8.60;99.90;;;;;;5096883;28;20422;-53
2023/11/16 02:36:35;;;;;;;0.50;0.30;;;8.60;99.90;;;;;;5096726;28;20450;-51
2023/11/16 02:39:03;;;;;;;1.00;0.30;;;8.70;99.90;;;;;;5097102;28;20421;-52
2023/11/16 02:41:34;;;;;;;0.70;0.25;;;8.70;99.90;;;;;;5096818;28;20426;-52
2023/11/16 02:44:02;;;;;;;0.60;0.20;;;8.70;99.90;;;;;;5095906;28;20542;-51
2023/11/16 02:46:31;;;;;;;1.35;0.30;;;8.80;99.90;;;;;;5096517;28;20426;-51
2023/11/16 02:48:58;;;;;;;0.75;0.30;;;8.80;99.90;;;;;;5096969;28;20729;-51
2023/11/16 02:51:25;;;;;;;0.70;0.30;;;8.90;99.90;;;;;;5097058;28;20414;-52
2023/11/16 02:53:53;;;;;;;1.38;0.30;;;9.00;99.90;;;;;;5096812;28;20422;-49
2023/11/16 02:56:20;;;;;;;0.70;0.30;;;9.00;99.90;;;;;;5097000;28;20937;-49
2023/11/16 02:58:49;;;;;;;0.55;0.30;;;9.00;99.90;;;;;;5096627;28;20421;-52
2023/11/16 03:01:16;;;;;;;0.60;0.30;;;8.90;99.90;;;;;;5097127;28;20428;-46
2023/11/16 03:03:43;;;;;;;1.00;0.30;;;8.90;99.90;;;;;;5096623;28;20414;-49
2023/11/16 03:06:10;;;;;;;0.70;0.30;;;8.80;99.90;;;;;;5096392;28;20509;-46
2023/11/16 03:08:37;;;;;;;0.73;0.40;;;8.80;99.90;;;;;;5096654;28;20434;-50
2023/11/16 03:11:06;;;;;;;0.82;0.30;;;8.80;99.90;;;;;;5096975;28;20679;-50
2023/11/16 03:13:33;;;;;;;0.60;0.30;;;8.70;99.90;;;;;;5096389;28;20429;-49
2023/11/16 03:16:05;;;;;;;0.80;0.30;;;8.70;99.90;;;;;;5096491;28;20425;-50
2023/11/16 03:18:32;;;;;;;1.60;0.30;;;8.60;99.90;;;;;;5096448;28;20419;-52
2023/11/16 03:20:59;;;;;;;1.00;0.30;;;8.60;99.90;;;;;;5096074;28;20796;-52
2023/11/16 03:23:26;;;;;;;0.80;0.30;;;8.60;99.90;;;;;;5095738;28;20418;-49
2023/11/16 03:25:55;;;;;;;0.50;0.30;;;8.70;99.90;;;;;;5093947;28;20801;-50
2023/11/16 03:28:22;;;;;;;0.50;0.30;;;8.70;99.90;;;;;;5094287;28;20466;-53
2023/11/16 03:30:50;;;;;;;0.90;0.30;;;8.70;99.90;;;;;;5096617;28;20446;-52
2023/11/16 03:33:18;;;;;;;0.50;0.30;;;8.60;99.90;;;;;;5096205;28;20475;-50
2023/11/16 03:35:48;;;;;;;1.25;0.30;;;8.60;99.90;;;;;;5096754;28;20426;-48
2023/11/16 03:38:18;;;;;;;1.50;0.40;;;8.70;99.90;;;;;;5096305;28;20862;-50
2023/11/16 03:40:45;;;;;;;2.15;0.32;;;8.70;99.90;;;;;;5096649;28;20428;-47
2023/11/16 03:43:12;;;;;;;1.10;0.30;;;8.80;99.90;;;;;;5097163;28;20504;-51
2023/11/16 03:45:40;;;;;;;1.90;0.30;;;8.80;99.90;;;;;;5095803;28;20418;-50
2023/11/16 03:48:09;;;;;;;0.90;0.30;;;8.80;99.90;;;;;;5096237;28;20854;-49
2023/11/16 03:50:39;;;;;;;1.20;0.30;;;8.80;99.90;;;;;;5097000;28;20428;-51
2023/11/16 03:53:07;;;;;;;2.20;0.40;;;8.80;99.90;;;;;;5096947;28;20483;-50
2023/11/16 03:55:34;;;;;;;0.90;0.30;;;8.80;99.90;;;;;;5096383;28;20426;-52
2023/11/16 03:58:01;;;;;;;1.20;0.30;;;8.70;99.90;;;;;;5095992;28;20418;-49
2023/11/16 04:00:30;;;;;;;0.90;0.30;;;8.70;99.90;;;;;;5096683;28;20421;-49
2023/11/16 04:02:59;;;;;;;0.60;0.30;;;8.60;99.90;;;;;;5096791;28;20426;-48
2023/11/16 04:05:27;;;;;;;0.70;0.30;;;8.50;99.90;;;;;;5096627;28;20829;-47
2023/11/16 04:07:57;;;;;;;1.23;0.30;;;8.40;99.90;;;;;;5096264;28;20429;-48
2023/11/16 04:10:24;;;;;;;0.80;0.30;;;8.40;99.90;;;;;;5096464;28;20461;-50
2023/11/16 04:12:51;;;;;;;0.60;0.30;;;8.40;99.90;;;;;;5096639;28;20414;-48
2023/11/16 04:15:18;;;;;;;1.20;0.30;;;8.40;99.90;;;;;;5096293;28;20422;-48
2023/11/16 04:17:46;;;;;;;0.88;0.30;;;8.50;99.90;;;;;;5096574;28;20430;-48
2023/11/16 04:20:13;;;;;;;1.10;0.30;;;8.50;99.90;;;;;;5096227;28;20426;-50
2023/11/16 04:22:40;;;;;;;1.00;0.30;;;8.50;99.90;;;;;;5095884;28;20712;-49
2023/11/16 04:25:18;;;;;;;0.50;0.30;;;8.50;99.90;;;;;;5095841;28;20607;-46
2023/11/16 04:27:47;;;;;;;2.30;0.40;;;8.50;99.90;;;;;;5095060;28;20426;-51
2023/11/16 04:30:16;;;;;;;1.08;0.30;;;8.40;99.90;;;;;;5094481;28;20414;-49
2023/11/16 04:32:45;;;;;;;1.40;0.30;;;8.50;99.90;;;;;;5093930;28;20422;-49
2023/11/16 04:35:13;;;;;;;0.90;0.30;;;8.50;99.90;;;;;;5094126;28;20516;-53
2023/11/16 04:37:40;;;;;;;1.10;0.30;;;8.50;99.90;;;;;;5094429;28;20433;-50
2023/11/16 04:40:13;;;;;;;2.00;0.40;;;8.50;99.90;;;;;;5094300;28;20439;-52
2023/11/16 04:42:42;;;;;;;0.70;0.30;;;8.50;99.90;;;;;;5094436;28;20421;-52
2023/11/16 04:45:11;;;;;;;1.27;0.30;;;8.60;99.90;;;;;;5095506;28;20883;-54
2023/11/16 04:47:40;;;;;;;0.40;0.20;;;8.60;99.90;;;;;;5095348;28;20524;-52
2023/11/16 04:50:09;;;;;;;1.50;0.40;;;8.60;99.90;;;;;;5095359;28;20422;-50
2023/11/16 04:52:36;;;;;;;1.27;0.30;;;8.60;99.90;;;;;;5094151;28;20907;-53
2023/11/16 04:55:04;;;;;;;0.50;0.30;;;8.60;99.90;;;;;;5095295;28;20426;-52
2023/11/16 04:57:33;;;;;;;1.90;0.40;;;8.60;99.90;;;;;;5093612;28;20825;-54
2023/11/16 05:00:00;;;;;;;1.33;0.30;;;8.60;99.90;;;;;;5094219;28;20706;-51
2023/11/16 05:02:28;;;;;;;1.10;0.30;;;8.60;99.90;;;;;;5093662;28;20422;-51
2023/11/16 05:04:55;;;;;;;0.73;0.30;;;8.60;99.90;;;;;;5093078;28;20429;-52
2023/11/16 05:07:22;;;;;;;0.80;0.30;;;8.60;99.90;;;;;;5093473;28;20469;-51
2023/11/16 05:09:49;;;;;;;4.40;0.40;;;8.60;99.90;;;;;;5093870;28;20430;-53
2023/11/16 05:12:16;;;;;;;0.70;0.30;;;8.50;99.90;;;;;;5094243;28;20414;-49
2023/11/16 05:14:44;;;;;;;0.60;0.30;;;8.50;99.90;;;;;;5094382;28;20846;-55
2023/11/16 05:17:11;;;;;;;0.70;0.30;;;8.50;99.90;;;;;;5095388;28;20837;-49
2023/11/16 05:19:38;;;;;;;1.20;0.30;;;8.50;99.90;;;;;;5094055;28;20421;-52
2023/11/16 05:22:06;;;;;;;1.50;0.30;;;8.50;99.90;;;;;;5094063;28;20422;-52
2023/11/16 05:24:34;;;;;;;0.60;0.30;;;8.40;99.90;;;;;;5095125;28;20418;-52
2023/11/16 05:27:02;;;;;;;1.13;0.40;;;8.40;99.90;;;;;;5094826;28;20426;-52
2023/11/16 05:29:30;;;;;;;0.75;0.30;;;8.40;99.90;;;;;;5095388;28;20833;-52
2023/11/16 05:31:59;;;;;;;1.00;0.30;;;8.40;99.90;;;;;;5095461;28;20817;-51
2023/11/16 05:34:28;;;;;;;1.00;0.30;;;8.40;99.90;;;;;;5094125;28;20432;-53
2023/11/16 05:36:56;;;;;;;1.70;0.30;;;8.40;99.90;;;;;;5091860;28;20422;-48
2023/11/16 05:39:23;;;;;;;1.40;0.30;;;8.50;99.90;;;;;;5094531;28;20456;-49
2023/11/16 05:41:50;;;;;;;1.35;0.35;;;8.50;99.90;;;;;;5094897;28;20429;-48
2023/11/16 05:44:18;;;;;;;0.60;0.30;;;8.60;99.90;;;;;;5094736;28;20425;-53
2023/11/16 05:46:45;;;;;;;0.60;0.30;;;8.60;99.90;;;;;;5094277;28;20780;-53
2023/11/16 05:49:15;;;;;;;0.90;0.30;;;8.70;99.90;;;;;;5093916;28;20459;-49
2023/11/16 05:51:42;;;;;;;2.20;0.30;;;8.70;99.90;;;;;;5094934;28;20725;-51
2023/11/16 05:54:10;;;;;;;0.50;0.22;;;8.60;99.90;;;;;;5095170;28;20425;-51
2023/11/16 05:56:40;;;;;;;2.50;0.40;;;8.70;99.90;;;;;;5094989;28;20524;-49
2023/11/16 05:59:10;;;;;;;1.55;0.38;;;8.70;99.90;;;;;;5095117;28;20426;-53
2023/11/16 06:01:38;;;;;;;1.90;0.40;;;8.70;99.90;;;;;;5094972;28;20792;-55
2023/11/16 06:04:06;;;;;;;1.90;0.40;;;8.70;99.90;;;;;;5094719;28;20417;-53
2023/11/16 06:06:35;;;;;;;2.00;0.30;;;8.80;99.90;;;;;;5093624;28;20425;-53
2023/11/16 06:09:03;;;;;;;0.50;0.30;;;8.80;94.10;;;;;;5095379;28;20836;-53
2023/11/16 06:11:31;;;;;;;0.90;0.30;;;8.80;92.00;;;;;;5097849;28;20918;-49
2023/11/16 06:13:59;;;;;;;1.02;0.20;;;8.90;99.90;;;;;;5098023;28;20595;-52
2023/11/16 06:16:26;;;;;;;1.90;0.30;;;8.80;79.40;;;;;;5097387;28;20490;-50
2023/11/16 06:18:57;;;;;;;1.80;0.40;;;8.80;60.90;;;;;;5095496;28;20405;-50
2023/11/16 06:21:24;;;;;;;0.80;0.30;;;8.80;75.90;;;;;;5094396;28;20418;-53
2023/11/16 06:23:54;;;;;;;1.40;0.30;;;8.80;87.50;;;;;;5093150;28;20436;-53
2023/11/16 06:26:21;;;;;;;0.90;0.30;;;8.80;89.90;;;;;;5094296;28;20429;-51
2023/11/16 06:28:48;;;;;;;1.90;0.40;;;8.80;90.00;;;;;;5095561;28;20432;-55
2023/11/16 06:31:18;;;;;;;1.40;0.30;;;8.80;71.10;;;;;;5094852;28;20771;-51
2023/11/16 06:33:45;;;;;;;1.13;0.40;;;8.80;86.90;;;;;;5094082;28;20417;-51
2023/11/16 06:36:12;;;;;;;0.60;0.30;;;8.80;82.90;;;;;;5094311;28;20504;-52
2023/11/16 06:38:40;;;;;;;1.25;0.40;;;8.70;73.90;;;;;;5093483;28;20704;-51
2023/11/16 06:41:08;;;;;;;1.00;0.30;;;8.70;90.10;;;;;;5095109;28;20452;-53
2023/11/16 06:43:35;;;;;;;1.00;0.30;;;8.70;91.60;;;;;;5096541;28;20833;-51
2023/11/16 06:46:03;;;;;;;0.77;0.35;;;8.70;92.50;;;;;;5095273;28;20524;-53
2023/11/16 06:48:30;;;;;;;1.30;0.30;;;8.60;86.50;;;;;;5093929;28;20420;-52
2023/11/16 06:50:59;;;;;;;1.00;0.30;;;8.60;94.50;;;;;;5096938;28;20899;-54
2023/11/16 06:53:26;;;;;;;1.08;0.30;;;8.70;99.90;;;;;;5095949;28;20428;-50
2023/11/16 06:55:53;;;;;;;1.10;0.32;;;8.70;98.90;;;;;;5095555;28;20425;-52
2023/11/16 06:58:22;;;;;;;1.40;0.40;;;8.70;97.90;;;;;;5096430;28;20725;-53
2023/11/16 07:00:51;;;;;;;1.13;0.40;;;8.70;94.40;;;;;;5093170;28;20440;-53
2023/11/16 07:03:19;;;;;;;0.98;0.30;;;8.70;99.80;;;;;;5092091;28;20432;-51
2023/11/16 07:05:46;;;;;;;0.80;0.30;;;8.80;93.50;;;;;;5094378;28;20461;-52
2023/11/16 07:08:13;;;;;;;0.70;0.30;;;8.70;74.50;;;;;;5094375;28;20421;-53
2023/11/16 07:10:42;;;;;;;1.50;0.30;;;8.70;74.50;;;;;;5093956;28;20722;-54
2023/11/16 07:13:14;;;;;;;1.30;0.40;;;8.80;57.30;;;;;;5094010;28;20717;-53
2023/11/16 07:15:44;;;;;;;1.00;0.30;;;8.70;69.70;;;;;;5093492;28;20425;-49
2023/11/16 07:18:11;;;;;;;1.10;0.40;;;8.70;68.90;;;;;;5090762;28;20445;-54
2023/11/16 07:20:40;;;;;;;1.20;0.30;;;8.70;79.10;;;;;;5092963;28;20418;-54
2023/11/16 07:23:08;;;;;;;0.50;0.30;;;8.60;90.00;;;;;;5094625;28;20438;-52
2023/11/16 07:25:37;;;;;;;1.58;0.30;;;8.60;94.00;;;;;;5092381;28;20433;-53
2023/11/16 07:28:05;;;;;;;0.60;0.30;;;8.60;97.30;;;;;;5093282;28;20473;-52
2023/11/16 07:30:35;;;;;;;1.15;0.30;;;8.70;97.00;;;;;;5088283;28;20760;-54
2023/11/16 07:33:04;;;;;;;1.73;0.40;;;8.70;87.00;;;;;;5093211;28;20528;-54
2023/11/16 07:35:33;;;;;;;0.60;0.30;;;8.80;77.50;;;;;;5089920;28;20445;-58
2023/11/16 07:38:00;;;;;;;1.40;0.30;;;8.80;62.60;;;;;;5081306;28;20454;-57
2023/11/16 07:40:28;;;;;;;1.20;0.40;;;8.80;53.50;;;;;;5080658;28;20833;-59
2023/11/16 07:42:55;;;;;;;0.80;0.30;;;8.80;56.50;;;;;;5089628;28;20421;-58
2023/11/16 07:45:22;;;;;;;1.35;0.30;;;8.80;71.30;;;;;;5092164;28;20425;-58
2023/11/16 07:47:50;;;;;;;1.02;0.35;;;8.90;68.00;;;;;;5093320;28;20741;-58
2023/11/16 07:50:19;;;;;;;1.00;0.33;;;8.90;51.40;;;;;;5091593;28;20726;-58
2023/11/16 07:52:47;;;;;;;1.00;0.30;;;8.90;45.10;;;;;;5092731;28;20516;-59
2023/11/16 07:55:16;;;;;;;2.00;0.40;;;8.90;44.80;;;;;;5085950;28;20870;-58
2023/11/16 07:57:47;;;;;;;1.60;0.40;;;8.90;45.60;;;;;;5091378;28;20433;-56
2023/11/16 08:00:22;;;;;;;1.60;0.40;;;8.90;37.00;;;;;;5089787;28;20425;-57
2023/11/16 08:05:39;;;;;;;0.80;0.30;;;8.90;33.40;;;;;;5083261;28;20870;-58
2023/11/16 08:08:11;;;;;;;1.00;0.40;;;9.00;26.80;;;;;;5094393;28;20433;-59
2023/11/16 08:10:38;;;;;;;1.45;0.30;;;9.00;26.50;;;;;;5094005;28;20429;-59
2023/11/16 08:13:06;;;;;;;1.00;0.40;;;9.00;28.40;;;;;;5091309;28;20965;-56
2023/11/16 08:15:34;;;;;;;1.10;0.50;;;9.00;34.80;;;;;;5093049;28;21062;-57
2023/11/16 08:18:02;;;;;;;1.60;0.40;;;9.00;17.50;;;;;;5090717;28;20433;-55
2023/11/16 08:20:31;;;;;;;1.02;0.40;;;9.00;25.90;;;;;;5091957;28;20422;-56
2023/11/16 08:22:59;;;;;;;2.90;0.40;;;9.00;31.30;;;;;;5092886;28;20440;-54
2023/11/16 08:25:28;;;;;;;1.40;0.40;;;9.00;24.80;;;;;;5091672;28;20421;-56
2023/11/16 08:27:56;;;;;;;0.70;0.30;;;9.00;26.40;;;;;;5090913;28;20448;-56
2023/11/16 08:30:23;;;;;;;2.30;0.35;;;9.10;99.90;;;;;;5092078;28;20844;-56
2023/11/16 08:32:52;;;;;;;0.93;0.40;;;9.10;99.90;;;;;;5093714;28;20429;-53
2023/11/16 08:35:19;;;;;;;1.10;0.40;;;9.10;99.90;;;;;;5077454;28;20432;-55
2023/11/16 08:37:47;;;;;;;0.60;0.30;;;9.20;99.90;;;;;;5091839;28;20422;-56
2023/11/16 08:40:18;;;;;;;1.10;0.32;;;9.20;99.90;;;;;;5090429;28;20418;-56
2023/11/16 08:42:47;;;;;;;1.23;0.40;;;9.20;99.90;;;;;;5092100;28;20475;-55
2023/11/16 08:45:20;;;;;;;1.27;0.40;;;9.10;99.90;;;;;;5093722;28;20445;-55
2023/11/16 08:47:48;;;;;;;0.90;0.40;;;9.10;99.90;;;;;;5093179;28;20898;-54
2023/11/16 08:50:17;;;;;;;1.00;0.40;;;9.20;99.90;;;;;;5093664;28;20438;-57
2023/11/16 08:52:48;;;;;;;1.40;0.40;;;9.30;99.90;;;;;;5088052;28;20435;-56
2023/11/16 08:55:21;;;;;;;0.70;0.40;;;9.30;99.90;;;;;;5092347;28;20461;-57
2023/11/16 08:57:50;;;;;;;1.48;0.30;;;9.30;99.90;;;;;;5084066;28;20434;-56
2023/11/16 09:00:28;;;;;;;1.00;0.40;;;9.40;99.90;;;;;;5092101;28;20413;-56
2023/11/16 09:02:55;;;;;;;0.63;0.40;;;9.40;99.90;;;;;;5089380;28;20430;-56
2023/11/16 09:05:23;;;;;;;1.20;0.40;;;9.40;99.90;;;;;;5090732;28;20433;-53
2023/11/16 09:07:51;;;;;;;1.58;0.40;;;9.50;5.20;;;;;;5090836;28;20426;-54
2023/11/16 09:10:21;;;;;;;2.75;0.47;;;9.60;1.00;;;;;;5085052;28;20441;-54
2023/11/16 09:12:49;;;;;;;0.68;0.30;;;9.80;49.30;;;;;;5089274;28;20425;-55
2023/11/16 09:15:16;;;;;;;0.75;0.40;;;9.80;99.90;;;;;;5090361;28;20429;-54
2023/11/16 09:17:45;;;;;;;0.90;0.40;;;9.90;99.90;;;;;;5090898;28;20430;-53
2023/11/16 09:20:13;;;;;;;1.00;0.47;;;10.00;99.90;;;;;;5092716;28;20499;-50
2023/11/16 09:22:42;;;;;;;0.80;0.40;;;10.00;99.90;;;;;;5090874;28;20422;-54
2023/11/16 09:25:15;;;;;;;2.00;0.50;;;10.10;99.90;;;;;;5091486;28;20433;-55
2023/11/16 09:27:44;;;;;;;1.10;0.32;;;10.00;99.90;;;;;;5084477;28;20429;-53
2023/11/16 09:30:14;;;;;;;1.65;0.40;;;9.80;99.90;;;;;;5091824;28;20728;-54
2023/11/16 09:32:42;;;;;;;1.30;0.40;;;9.90;99.90;;;;;;5091838;28;20520;-51
2023/11/16 09:35:14;;;;;;;1.10;0.40;;;9.80;99.90;;;;;;5089774;28;20725;-55
2023/11/16 09:37:44;;;;;;;1.00;0.30;;;9.90;99.90;;;;;;5091362;28;20492;-52
2023/11/16 09:40:14;;;;;;;0.82;0.40;;;9.90;99.90;;;;;;5090583;28;20546;-63
2023/11/16 09:42:44;;;;;;;1.90;0.30;;;9.90;99.90;;;;;;5090695;28;20457;-61
2023/11/16 09:45:15;;;;;;;0.60;0.40;;;9.90;99.90;;;;;;5094110;28;20425;-54
2023/11/16 09:47:45;;;;;;;0.90;0.40;;;9.80;99.90;;;;;;5092265;28;21059;-55
2023/11/16 09:50:14;;;;;;;0.90;0.40;;;9.80;99.90;;;;;;5093335;28;20437;-55
2023/11/16 09:52:41;;;;;;;0.60;0.40;;;9.90;99.90;;;;;;5094601;28;21071;-55
2023/11/16 09:55:10;;;;;;;1.20;0.40;;;9.90;99.90;;;;;;5082823;28;20427;-53
2023/11/16 09:57:41;;;;;;;1.90;0.40;;;9.90;99.90;;;;;;5091548;28;20589;-52
2023/11/16 10:00:15;;;;;;;1.70;0.40;;;9.90;99.90;;;;;;5094804;28;20849;-55
2023/11/16 10:02:47;;;;;;;1.20;0.30;;;9.90;99.90;;;;;;5087197;28;20554;-54
2023/11/16 10:05:26;;;;;;;0.80;0.40;;;9.80;99.90;;;;;;5084480;28;20744;-55
2023/11/16 10:07:56;;;;;;;1.40;0.40;;;9.90;99.90;;;;;;5096344;28;20848;-58
2023/11/16 10:10:28;;;;;;;1.50;0.50;;;9.90;99.90;;;;;;5095824;28;20434;-52
2023/11/16 10:12:56;;;;;;;1.88;0.50;;;9.80;99.90;;;;;;5081164;28;20431;-53
2023/11/16 10:15:24;;;;;;;1.25;0.38;;;9.90;99.90;;;;;;5096173;28;20992;-49
2023/11/16 10:17:55;;;;;;;1.00;0.40;;;9.80;99.90;;;;;;5094470;28;20421;-49
2023/11/16 10:20:24;;;;;;;1.50;0.40;;;9.80;99.90;;;;;;5093981;28;20479;-53
2023/11/16 10:22:53;;;;;;;1.38;0.40;;;9.80;99.90;;;;;;5094570;28;20450;-52
2023/11/16 10:25:24;;;;;;;1.30;0.30;;;9.80;99.90;;;;;;5079115;28;20433;-49
2023/11/16 10:27:52;;;;;;;0.77;0.40;;;9.80;99.90;;;;;;5095199;28;20422;-49
2023/11/16 10:30:21;;;;;;;1.63;0.40;;;9.70;99.90;;;;;;5094515;28;20521;-51
2023/11/16 10:32:51;;;;;;;0.95;0.35;;;9.80;99.90;;;;;;5093042;28;20465;-50
2023/11/16 10:35:23;;;;;;;1.83;0.43;;;9.80;99.90;;;;;;5093194;28;20437;-53
2023/11/16 10:37:50;;;;;;;3.40;0.40;;;9.90;99.90;;;;;;5091725;28;21053;-49
2023/11/16 10:40:18;;;;;;;2.30;0.40;;;9.90;99.90;;;;;;5091747;28;20776;-52
2023/11/16 10:42:46;;;;;;;1.02;0.40;;;9.90;99.90;;;;;;5092564;28;20879;-53
2023/11/16 10:45:14;;;;;;;0.80;0.40;;;9.90;99.90;;;;;;5092111;28;20516;-52
2023/11/16 10:47:45;;;;;;;0.90;0.40;;;9.90;99.90;;;;;;5090866;28;20437;-48
2023/11/16 10:50:15;;;;;;;0.82;0.40;;;9.90;99.90;;;;;;5090240;28;20433;-52
2023/11/16 10:52:45;;;;;;;1.00;0.40;;;9.80;99.90;;;;;;5092604;28;20878;-52
2023/11/16 10:55:21;;;;;;;0.63;0.30;;;9.80;99.90;;;;;;5088677;28;20430;-54
2023/11/16 10:57:53;;;;;;;0.80;0.30;;;9.80;99.90;;;;;;5091969;28;20414;-51
2023/11/16 11:00:22;;;;;;;0.50;0.30;;;9.90;99.90;;;;;;5084680;28;20464;-53
2023/11/16 11:02:50;;;;;;;0.80;0.40;;;9.90;99.90;;;;;;5088839;28;20506;-52
2023/11/16 11:05:21;;;;;;;0.63;0.30;;;10.00;99.90;;;;;;5074211;28;20532;-50
2023/11/16 11:07:54;;;;;;;0.88;0.40;;;10.00;99.90;;;;;;5086988;28;20430;-53
2023/11/16 11:10:23;;;;;;;1.40;0.40;;;10.00;99.90;;;;;;5089284;28;20838;-51
2023/11/16 11:12:50;;;;;;;2.05;0.30;;;10.10;99.90;;;;;;5094749;28;20678;-51
2023/11/16 11:15:29;;;;;;;0.80;0.40;;;10.10;99.90;;;;;;5093926;28;20409;-48
2023/11/16 11:17:58;;;;;;;0.60;0.30;;;10.20;99.90;;;;;;5093922;28;20855;-49
2023/11/16 11:20:32;;;;;;;0.70;0.30;;;10.20;99.90;;;;;;5088653;28;20885;-52
2023/11/16 11:23:08;;;;;;;0.70;0.30;;;10.20;99.90;;;;;;5093793;28;20424;-52
2023/11/16 11:25:41;;;;;;;0.75;0.40;;;10.20;99.90;;;;;;5092792;28;20438;-48
2023/11/16 11:28:09;;;;;;;0.90;0.30;;;10.40;99.90;;;;;;5090346;28;20522;-51
2023/11/16 11:30:37;;;;;;;0.80;0.40;;;10.50;99.90;;;;;;5094193;28;20764;-52
2023/11/16 11:33:14;;;;;;;2.30;0.40;;;10.60;99.90;;;;;;5092472;28;20475;-53
2023/11/16 11:35:49;;;;;;;1.35;0.40;;;10.70;99.90;;;;;;5088124;28;20553;-52
2023/11/16 11:38:19;;;;;;;2.70;0.40;;;10.80;99.90;;;;;;5093321;28;20429;-51
2023/11/16 11:40:52;;;;;;;1.90;0.50;;;10.80;99.90;;;;;;5093324;28;20494;-49
2023/11/16 11:43:21;;;;;;;1.20;0.30;;;10.70;99.90;;;;;;5073806;28;20433;-51
2023/11/16 11:45:48;;;;;;;1.17;0.40;;;10.70;99.90;;;;;;5086747;28;20430;-52
2023/11/16 11:48:15;;;;;;;1.38;0.40;;;10.70;99.90;;;;;;5082619;28;20439;-50
2023/11/16 11:50:43;;;;;;;1.10;0.50;;;10.70;99.90;;;;;;5087327;28;20499;-49
2023/11/16 11:53:16;;;;;;;2.10;0.50;;;10.70;99.90;;;;;;5092937;28;20710;-51
2023/11/16 11:55:47;;;;;;;2.60;0.50;;;10.70;99.90;;;;;;5092716;28;20540;-54
2023/11/16 11:58:14;;;;;;;2.10;0.60;;;10.80;99.90;;;;;;5093268;28;20733;-53
2023/11/16 12:00:48;;;;;;;1.10;0.60;;;10.70;99.90;;;;;;5092364;28;20417;-50
2023/11/16 12:03:16;;;;;;;1.42;0.50;;;10.70;99.90;;;;;;5098078;28;20459;-50
2023/11/16 12:05:45;;;;;;;1.35;0.50;;;10.70;99.90;;;;;;5103012;28;20860;-52
2023/11/16 12:08:13;;;;;;;1.40;0.50;;;10.70;99.90;;;;;;5092345;28;20565;-50
2023/11/16 12:10:41;;;;;;;1.02;0.40;;;10.70;99.90;;;;;;5093968;28;20831;-49
2023/11/16 12:13:11;;;;;;;2.00;0.60;;;10.70;99.90;;;;;;5093416;28;20717;-50
2023/11/16 12:15:38;;;;;;;1.50;0.50;;;10.80;99.90;;;;;;5079413;28;20500;-52
2023/11/16 12:18:07;;;;;;;1.20;0.67;;;10.90;99.90;;;;;;5089999;28;20433;-56
2023/11/16 12:20:36;;;;;;;1.20;0.60;;;10.90;99.90;;;;;;5091120;28;20425;-52
2023/11/16 12:23:06;;;;;;;1.05;0.47;;;10.80;99.90;;;;;;5093552;28;20425;-51
2023/11/16 12:25:34;;;;;;;1.83;0.60;;;10.70;99.90;;;;;;5092783;28;20438;-50
2023/11/16 12:28:04;;;;;;;2.10;0.90;;;10.70;99.90;;;;;;5089584;28;20425;-51
2023/11/16 12:30:36;;;;;;;3.40;0.90;;;10.70;99.90;;;;;;5091583;28;20430;-49
2023/11/16 12:33:03;;;;;;;1.92;0.80;;;10.70;1.00;;;;;;5091009;28;20502;-48
2023/11/16 12:35:30;;;;;;;2.92;1.00;;;10.80;99.90;;;;;;5092257;28;20425;-50
2023/11/16 12:37:58;;;;;;;2.00;0.90;;;10.80;99.90;;;;;;5089261;28;21779;-50
2023/11/16 12:40:25;;;;;;;1.60;0.80;;;10.80;99.90;;;;;;5090993;28;20433;-53
2023/11/16 12:42:52;;;;;;;1.83;0.80;;;10.80;99.90;;;;;;5090774;28;20473;-54
2023/11/16 12:45:20;;;;;;;3.00;1.00;;;10.70;99.90;;;;;;5092985;28;20414;-50
2023/11/16 12:47:51;;;;;;;2.35;1.00;;;10.60;79.70;;;;;;5088683;28;20444;-50
2023/11/16 12:50:18;;;;;;;2.72;0.80;;;10.50;99.90;;;;;;5091622;28;20738;-50
2023/11/16 12:52:47;;;;;;;2.30;0.80;;;10.50;99.90;;;;;;5084955;28;20433;-51
2023/11/16 12:55:14;;;;;;;2.22;0.70;;;10.30;79.80;;;;;;5083973;28;20541;-52
2023/11/16 12:57:41;;;;;;;1.00;0.70;;;10.20;99.90;;;;;;5096605;28;20867;-53
2023/11/16 13:00:10;;;;;;;2.50;0.85;;;10.10;99.90;;;;;;5089195;28;20706;-50
2023/11/16 13:02:37;;;;;;;2.30;0.80;;;10.20;1.00;;;;;;5088697;28;20488;-53
2023/11/16 13:05:06;;;;;;;1.90;0.70;;;10.10;1.00;;;;;;5091712;28;21036;-51